Thunder radar more information blitzortung!


Radar de pluja more information rain snow radar


Visita la nostra xarxa de llocs de meteo:

Template documentation
and downloads

And another site



Wind From: 11-12-2017 11:00 Until: 14:59 warning for: Wind Level: Yellow info button

Pagina Historial Weather Underground text

Diari Resum Juliol 28, 2017 Unitats:  Mètric    Imperial   Tant
« Previous Dia
SegĂźent Dia »
Diari Setmana Mensual Anual Personalitzada
  Maxima: Minima: Media:
Temperatura: 30.8 °C 20.6 °C 26.1 °C
Punt de rosada: 21.2 °C 17.3 °C 18.6 °C
Humitat: 85 % 47 % 65 %
Wind Speed: 25.9 km/h 0.0 km/h 8.2 km/h
RĂ fegues de vent: 25.9 km/h - -
Vent:- - ESE
Pression baro: 1015.8 hPa 1012.8 hPa -
Precipitacions: 0.0 mm    
Historical Graphs
 
 
Dades de taula per Juliol 28, 2017
Temps Temperatura Punt de rosada Pression baro Vent Wind Speed RĂ fegues de vent Humitat Rainfall Rate (Hourly)
00:03 24.2 °C 19.1 °C 1012.8 hPa Calm     73 % 0.0 mm
00:05 21.7 °C 18.7 °C 1013.8 hPa Calm     83 % 0.0 mm
00:08 24.2 °C 19.1 °C 1012.8 hPa WSW 2.6 km/h 2.6 km/h 73 % 0.0 mm
00:13 24.2 °C 19.1 °C 1012.8 hPa WSW 2.6 km/h 2.6 km/h 73 % 0.0 mm
00:15 21.6 °C 18.6 °C 1013.8 hPa Calm     83 % 0.0 mm
00:18 24.1 °C 19.2 °C 1012.8 hPa WSW 1.9 km/h 1.9 km/h 74 % 0.0 mm
00:23 24.1 °C 19.2 °C 1012.8 hPa Calm     74 % 0.0 mm
00:25 21.6 °C 18.8 °C 1013.8 hPa Calm     84 % 0.0 mm
00:28 24.0 °C 19.3 °C 1012.8 hPa Calm     75 % 0.0 mm
00:33 24.0 °C 19.1 °C 1012.8 hPa WSW 1.9 km/h 1.9 km/h 74 % 0.0 mm
00:35 21.5 °C 18.7 °C 1014.8 hPa Calm     84 % 0.0 mm
00:38 23.9 °C 19.2 °C 1012.8 hPa WSW 1.9 km/h 1.9 km/h 75 % 0.0 mm
00:43 23.8 °C 19.1 °C 1012.8 hPa Calm     75 % 0.0 mm
00:45 21.4 °C 18.6 °C 1014.8 hPa Calm     84 % 0.0 mm
00:48 23.8 °C 19.3 °C 1012.8 hPa Calm     76 % 0.0 mm
00:49 23.8 °C 19.3 °C 1013.8 hPa Calm     76 % 0.0 mm
00:54 23.7 °C 19.2 °C 1013.8 hPa Calm     76 % 0.0 mm
00:55 21.4 °C 18.8 °C 1013.8 hPa Calm     85 % 0.0 mm
00:59 23.8 °C 19.3 °C 1013.8 hPa West 3.7 km/h 3.7 km/h 76 % 0.0 mm
01:04 23.8 °C 19.3 °C 1012.8 hPa West 1.9 km/h   76 % 0.0 mm
01:05 21.4 °C 18.8 °C 1013.8 hPa Calm   1.6 km/h 85 % 0.0 mm
01:09 23.7 °C 19.4 °C 1012.8 hPa Calm     77 % 0.0 mm
01:14 23.7 °C 19.4 °C 1012.8 hPa West 2.3 km/h 2.3 km/h 77 % 0.0 mm
01:15 21.4 °C 18.8 °C 1013.8 hPa ENE 1.6 km/h 3.2 km/h 85 % 0.0 mm
01:19 23.5 °C 19.2 °C 1013.8 hPa West 1.9 km/h 1.9 km/h 77 % 0.0 mm
01:24 23.5 °C 19.2 °C 1013.8 hPa ENE 3.7 km/h 3.7 km/h 77 % 0.0 mm
01:25 23.5 °C 19.2 °C 1013.8 hPa North 1.6 km/h 3.2 km/h 77 % 0.0 mm
01:30 23.3 °C 19.1 °C 1013.8 hPa Calm   3.2 km/h 77 % 0.0 mm
01:35 21.4 °C 18.6 °C 1014.8 hPa Calm   4.8 km/h 84 % 0.0 mm
01:45 21.4 °C 18.6 °C 1014.8 hPa Calm   1.6 km/h 84 % 0.0 mm
01:55 21.5 °C 18.7 °C 1014.8 hPa Calm     84 % 0.0 mm
02:05 21.5 °C 18.7 °C 1014.8 hPa NW 1.6 km/h 1.6 km/h 84 % 0.0 mm
02:15 21.6 °C 18.8 °C 1014.8 hPa West 1.6 km/h 1.6 km/h 84 % 0.0 mm
02:25 21.5 °C 18.7 °C 1014.8 hPa Calm   3.2 km/h 84 % 0.0 mm
02:35 21.5 °C 18.7 °C 1014.8 hPa WSW 1.6 km/h 3.2 km/h 84 % 0.0 mm
02:45 21.5 °C 18.7 °C 1014.8 hPa SW 1.6 km/h 3.2 km/h 84 % 0.0 mm
02:55 21.7 °C 19.1 °C 1015.8 hPa SW 1.6 km/h 3.2 km/h 85 % 0.0 mm
03:05 21.9 °C 19.3 °C 1014.8 hPa SW 1.6 km/h 3.2 km/h 85 % 0.0 mm
03:15 22.2 °C 19.6 °C 1014.8 hPa Calm   1.6 km/h 85 % 0.0 mm
03:25 22.5 °C 19.8 °C 1015.8 hPa Calm   3.2 km/h 85 % 0.0 mm
03:35 22.9 °C 20.1 °C 1015.8 hPa South 1.6 km/h 3.2 km/h 84 % 0.0 mm
03:45 23.4 °C 20.2 °C 1015.8 hPa SSW 1.6 km/h 3.2 km/h 82 % 0.0 mm
03:55 23.9 °C 20.4 °C 1015.8 hPa Calm   3.2 km/h 81 % 0.0 mm
04:05 24.5 °C 20.8 °C 1015.8 hPa SSE 1.6 km/h 3.2 km/h 80 % 0.0 mm
04:15 24.9 °C 20.8 °C 1015.8 hPa ESE 3.2 km/h 4.8 km/h 78 % 0.0 mm
04:25 25.1 °C 20.6 °C 1015.8 hPa East 3.2 km/h 4.8 km/h 76 % 0.0 mm
04:35 24.9 °C 20.4 °C 1015.8 hPa East 3.2 km/h 6.4 km/h 76 % 0.0 mm
04:45 25.4 °C 20.8 °C 1015.8 hPa ESE 3.2 km/h 6.4 km/h 76 % 0.0 mm
04:55 25.7 °C 20.9 °C 1015.8 hPa ESE 4.8 km/h 6.4 km/h 75 % 0.0 mm
05:05 26.1 °C 20.9 °C 1015.8 hPa East 3.2 km/h 8.0 km/h 73 % 0.0 mm
05:15 26.7 °C 21.2 °C 1015.8 hPa East 4.8 km/h 6.4 km/h 72 % 0.0 mm
05:25 27.4 °C 21.2 °C 1015.8 hPa East 3.2 km/h 8.0 km/h 69 % 0.0 mm
05:35 27.1 °C 20.7 °C 1015.8 hPa ESE 1.6 km/h 8.0 km/h 68 % 0.0 mm
05:45 27.7 °C 20.8 °C 1015.8 hPa ESE 4.8 km/h 4.8 km/h 66 % 0.0 mm
05:55 27.6 °C 20.4 °C 1015.8 hPa ENE 1.6 km/h 9.7 km/h 65 % 0.0 mm
06:05 28.3 °C 20.8 °C 1015.8 hPa ENE 4.8 km/h 8.0 km/h 64 % 0.0 mm
06:15 28.5 °C 20.5 °C 1015.8 hPa ESE 1.6 km/h 9.7 km/h 62 % 0.0 mm
06:25 28.8 °C 20.8 °C 1015.8 hPa Calm   4.8 km/h 62 % 0.0 mm
06:35 29.1 °C 20.8 °C 1015.8 hPa SW 3.2 km/h 4.8 km/h 61 % 0.0 mm
06:45 29.1 °C 20.6 °C 1015.8 hPa WSW 3.2 km/h 6.4 km/h 60 % 0.0 mm
06:50 29.4 °C 20.6 °C 1015.8 hPa WSW 4.8 km/h 4.8 km/h 59 % 0.0 mm
06:55 29.5 °C 20.1 °C 1015.8 hPa WSW 4.8 km/h 4.8 km/h 57 % 0.0 mm
07:00 29.4 °C 19.7 °C 1015.8 hPa SSE 4.8 km/h 4.8 km/h 56 % 0.0 mm
12:01 29.3 °C 19.3 °C 1015.8 hPa SSE 5.6 km/h 7.2 km/h 55 % 0.0 mm
12:06 29.1 °C 19.1 °C 1015.8 hPa South 11.1 km/h 11.1 km/h 55 % 0.0 mm
12:11 29.0 °C 18.8 °C 1015.8 hPa ESE 10.0 km/h 10.0 km/h 54 % 0.0 mm
12:16 29.4 °C 19.1 °C 1015.8 hPa East 9.0 km/h 9.0 km/h 54 % 0.0 mm
12:21 29.4 °C 18.8 °C 1015.8 hPa East 16.7 km/h 16.7 km/h 53 % 0.0 mm
12:26 29.6 °C 19.0 °C 1015.8 hPa ESE 10.3 km/h 10.3 km/h 53 % 0.0 mm
12:31 29.6 °C 18.7 °C 1015.8 hPa ESE 14.0 km/h 14.0 km/h 52 % 0.0 mm
12:36 29.1 °C 18.2 °C 1015.8 hPa ENE 9.3 km/h 9.3 km/h 52 % 0.0 mm
12:41 29.1 °C 18.2 °C 1015.8 hPa ESE 14.8 km/h 14.8 km/h 52 % 0.0 mm
12:46 29.3 °C 18.4 °C 1015.8 hPa South 15.1 km/h 15.1 km/h 52 % 0.0 mm
12:51 29.5 °C 18.3 °C 1014.8 hPa ESE 13.7 km/h 13.7 km/h 51 % 0.0 mm
12:56 29.5 °C 18.6 °C 1014.8 hPa SE 13.0 km/h 13.0 km/h 52 % 0.0 mm
13:01 30.3 °C 19.1 °C 1014.8 hPa ESE 12.2 km/h 12.2 km/h 51 % 0.0 mm
13:06 30.1 °C 18.6 °C 1014.8 hPa ENE 14.8 km/h 14.8 km/h 50 % 0.0 mm
13:11 30.0 °C 18.1 °C 1014.8 hPa ESE 13.7 km/h 13.7 km/h 49 % 0.0 mm
13:17 29.6 °C 18.1 °C 1014.8 hPa East 20.1 km/h 20.1 km/h 50 % 0.0 mm
13:22 29.6 °C 18.1 °C 1014.8 hPa ESE 17.5 km/h 17.5 km/h 50 % 0.0 mm
13:27 30.3 °C 18.4 °C 1014.8 hPa ESE 13.0 km/h 13.0 km/h 49 % 0.0 mm
13:32 30.1 °C 18.2 °C 1014.8 hPa SE 14.8 km/h 14.8 km/h 49 % 0.0 mm
13:37 29.9 °C 18.1 °C 1014.8 hPa ESE 16.7 km/h 16.7 km/h 49 % 0.0 mm
13:42 30.2 °C 18.3 °C 1014.8 hPa ESE 19.0 km/h 19.0 km/h 49 % 0.0 mm
13:47 29.9 °C 18.3 °C 1014.8 hPa South 11.1 km/h 11.1 km/h 50 % 0.0 mm
13:52 30.4 °C 18.8 °C 1013.8 hPa SE 13.0 km/h 13.0 km/h 50 % 0.0 mm
13:57 30.2 °C 18.6 °C 1013.8 hPa ESE 14.8 km/h 14.8 km/h 50 % 0.0 mm
14:02 30.0 °C 18.1 °C 1013.8 hPa ESE 20.4 km/h 20.4 km/h 49 % 0.0 mm
14:07 29.6 °C 18.1 °C 1013.8 hPa ESE 13.0 km/h 13.0 km/h 50 % 0.0 mm
14:12 29.4 °C 17.9 °C 1013.8 hPa East 24.1 km/h 24.1 km/h 50 % 0.0 mm
14:17 29.3 °C 17.8 °C 1013.8 hPa ESE 18.5 km/h 18.5 km/h 50 % 0.0 mm
14:22 29.5 °C 18.0 °C 1013.8 hPa ESE 16.9 km/h 16.9 km/h 50 % 0.0 mm
14:27 29.8 °C 18.3 °C 1013.8 hPa East 10.3 km/h 10.3 km/h 50 % 0.0 mm
14:32 30.0 °C 18.1 °C 1013.8 hPa ESE 13.0 km/h 13.0 km/h 49 % 0.0 mm
14:37 29.9 °C 18.1 °C 1013.8 hPa East 14.8 km/h 14.8 km/h 49 % 0.0 mm
14:42 30.0 °C 18.1 °C 1013.8 hPa ENE 11.1 km/h 11.1 km/h 49 % 0.0 mm
14:47 30.0 °C 18.1 °C 1013.8 hPa ESE 9.7 km/h 10.3 km/h 49 % 0.0 mm
14:52 29.9 °C 18.3 °C 1014.8 hPa ENE 15.6 km/h 15.6 km/h 50 % 0.0 mm
14:57 29.7 °C 18.2 °C 1014.8 hPa ENE 10.3 km/h 10.3 km/h 50 % 0.0 mm
15:02 30.1 °C 18.2 °C 1014.8 hPa ESE 16.7 km/h 16.7 km/h 49 % 0.0 mm
15:07 30.3 °C 18.4 °C 1013.8 hPa SSE 14.8 km/h 14.8 km/h 49 % 0.0 mm
15:12 30.6 °C 18.3 °C 1013.8 hPa SSW 11.1 km/h 11.1 km/h 48 % 0.0 mm
15:17 30.2 °C 18.0 °C 1013.8 hPa ESE 20.4 km/h 20.4 km/h 48 % 0.0 mm
15:22 30.4 °C 18.2 °C 1013.8 hPa SE 13.0 km/h 13.0 km/h 48 % 0.0 mm
15:27 30.8 °C 18.5 °C 1013.8 hPa SSW 13.0 km/h 13.0 km/h 48 % 0.0 mm
15:32 30.8 °C 18.5 °C 1013.8 hPa SSE 11.1 km/h 11.1 km/h 48 % 0.0 mm
15:37 30.6 °C 18.3 °C 1013.8 hPa SE 10.8 km/h 10.8 km/h 48 % 0.0 mm
15:42 30.2 °C 18.0 °C 1013.8 hPa ESE 14.8 km/h 14.8 km/h 48 % 0.0 mm
15:47 30.5 °C 18.2 °C 1013.8 hPa ENE 14.8 km/h 14.8 km/h 48 % 0.0 mm
15:52 30.3 °C 18.1 °C 1013.8 hPa ENE 18.5 km/h 18.5 km/h 48 % 0.0 mm
15:57 30.5 °C 17.9 °C 1013.8 hPa ENE 20.6 km/h 20.6 km/h 47 % 0.0 mm
16:02 30.5 °C 18.2 °C 1013.8 hPa ESE 24.5 km/h 24.5 km/h 48 % 0.0 mm
16:07 29.9 °C 17.7 °C 1013.8 hPa ENE 22.2 km/h 22.2 km/h 48 % 0.0 mm
16:12 30.1 °C 17.9 °C 1013.8 hPa ESE 14.8 km/h 14.8 km/h 48 % 0.0 mm
16:17 30.2 °C 18.0 °C 1013.8 hPa East 18.5 km/h 18.5 km/h 48 % 0.0 mm
16:22 29.9 °C 17.7 °C 1013.8 hPa ESE 25.9 km/h 25.9 km/h 48 % 0.0 mm
16:27 30.0 °C 17.8 °C 1013.8 hPa ESE 18.5 km/h 18.5 km/h 48 % 0.0 mm
16:32 29.9 °C 17.7 °C 1013.8 hPa East 20.6 km/h 20.6 km/h 48 % 0.0 mm
16:37 29.8 °C 17.6 °C 1013.8 hPa NNE 16.7 km/h 16.7 km/h 48 % 0.0 mm
16:42 30.2 °C 18.0 °C 1013.8 hPa ESE 14.8 km/h 14.8 km/h 48 % 0.0 mm
16:47 29.9 °C 17.7 °C 1013.8 hPa ENE 14.8 km/h 14.8 km/h 48 % 0.0 mm
16:52 29.8 °C 17.6 °C 1013.8 hPa SSE 16.4 km/h 16.4 km/h 48 % 0.0 mm
16:57 29.6 °C 17.4 °C 1013.8 hPa ENE 15.6 km/h 15.6 km/h 48 % 0.0 mm
17:02 29.7 °C 17.8 °C 1013.8 hPa ESE 18.5 km/h 18.5 km/h 49 % 0.0 mm
17:07 29.5 °C 17.7 °C 1013.8 hPa ESE 20.4 km/h 20.4 km/h 49 % 0.0 mm
17:12 29.3 °C 17.5 °C 1013.8 hPa ESE 14.8 km/h 14.8 km/h 49 % 0.0 mm
17:17 29.3 °C 17.5 °C 1013.8 hPa East 18.5 km/h 18.5 km/h 49 % 0.0 mm
17:22 29.2 °C 17.4 °C 1012.8 hPa NNE 16.7 km/h 16.7 km/h 49 % 0.0 mm
17:27 29.4 °C 17.6 °C 1012.8 hPa ENE 16.1 km/h 16.1 km/h 49 % 0.0 mm
17:32 29.2 °C 17.4 °C 1012.8 hPa ESE 13.0 km/h 13.0 km/h 49 % 0.0 mm
17:42 29.1 °C 17.3 °C 1013.8 hPa NE 16.7 km/h 16.7 km/h 49 % 0.0 mm
17:47 28.9 °C 17.7 °C 1013.8 hPa SE 20.4 km/h 20.4 km/h 51 % 0.0 mm
17:52 29.0 °C 17.5 °C 1012.8 hPa ESE 9.3 km/h 9.3 km/h 50 % 0.0 mm
17:57 28.9 °C 17.7 °C 1012.8 hPa ENE 14.8 km/h 14.8 km/h 51 % 0.0 mm
18:02 28.8 °C 17.7 °C 1012.8 hPa ESE 16.9 km/h 16.9 km/h 51 % 0.0 mm
18:09 28.6 °C 17.4 °C 1012.8 hPa ESE 14.8 km/h 14.8 km/h 51 % 0.0 mm
18:14 28.6 °C 17.4 °C 1012.8 hPa East 14.8 km/h 14.8 km/h 51 % 0.0 mm
18:19 28.6 °C 17.4 °C 1012.8 hPa ESE 18.5 km/h 18.5 km/h 51 % 0.0 mm
18:24 28.5 °C 17.4 °C 1012.8 hPa ESE 18.5 km/h 18.5 km/h 51 % 0.0 mm
18:29 28.2 °C 17.4 °C 1012.8 hPa ESE 22.2 km/h 22.2 km/h 52 % 0.0 mm
18:34 28.2 °C 17.4 °C 1012.8 hPa ESE 18.5 km/h 18.5 km/h 52 % 0.0 mm
18:39 28.2 °C 17.4 °C 1012.8 hPa ESE 18.0 km/h 18.0 km/h 52 % 0.0 mm
18:49 27.8 °C 17.3 °C 1012.8 hPa ESE 13.0 km/h 13.0 km/h 53 % 0.0 mm
18:54 27.8 °C 17.3 °C 1012.8 hPa ENE 14.8 km/h 14.8 km/h 53 % 0.0 mm
18:59 27.9 °C 17.4 °C 1012.8 hPa East 14.8 km/h 14.8 km/h 53 % 0.0 mm
19:04 28.0 °C 17.5 °C 1012.8 hPa ENE 13.0 km/h 13.0 km/h 53 % 0.0 mm
19:09 27.9 °C 17.7 °C 1012.8 hPa NNE 10.0 km/h 10.0 km/h 54 % 0.0 mm
19:10 22.9 °C 19.1 °C 1015.8 hPa NE 3.2 km/h 4.8 km/h 79 % 0.0 mm
19:14 27.8 °C 17.7 °C 1012.8 hPa ENE 14.8 km/h 14.8 km/h 54 % 0.0 mm
19:19 27.7 °C 17.6 °C 1012.8 hPa NNE 11.1 km/h 11.4 km/h 54 % 0.0 mm
19:20 22.8 °C 19.2 °C 1015.8 hPa ENE 4.8 km/h 6.4 km/h 80 % 0.0 mm
19:24 27.7 °C 17.8 °C 1012.8 hPa ESE 9.3 km/h 9.3 km/h 55 % 0.0 mm
19:29 27.8 °C 17.9 °C 1012.8 hPa ENE 7.4 km/h 7.4 km/h 55 % 0.0 mm
19:30 22.8 °C 19.2 °C 1015.8 hPa ENE 3.2 km/h 4.8 km/h 80 % 0.0 mm
19:34 27.6 °C 17.7 °C 1012.8 hPa SE 9.3 km/h 9.3 km/h 55 % 0.0 mm
19:39 27.6 °C 17.7 °C 1012.8 hPa ENE 9.3 km/h 9.3 km/h 55 % 0.0 mm
19:40 22.8 °C 19.4 °C 1015.8 hPa East 3.2 km/h 8.0 km/h 81 % 0.0 mm
19:44 27.2 °C 17.7 °C 1012.8 hPa ENE 11.1 km/h 11.1 km/h 56 % 0.0 mm
19:49 27.2 °C 17.9 °C 1013.8 hPa NE 7.4 km/h 7.4 km/h 57 % 0.0 mm
19:50 22.7 °C 19.3 °C 1015.8 hPa East 3.2 km/h 4.8 km/h 81 % 0.0 mm
19:54 27.0 °C 17.8 °C 1013.8 hPa ESE 13.0 km/h 13.0 km/h 57 % 0.0 mm
19:59 27.0 °C 17.8 °C 1013.8 hPa East 9.3 km/h 9.3 km/h 57 % 0.0 mm
20:00 22.6 °C 19.0 °C 1015.8 hPa ENE 1.6 km/h 4.8 km/h 80 % 0.0 mm
20:04 27.0 °C 17.8 °C 1013.8 hPa ENE 5.6 km/h 5.6 km/h 57 % 0.0 mm
20:09 26.8 °C 17.8 °C 1013.8 hPa ESE 11.1 km/h 11.1 km/h 58 % 0.0 mm
20:10 22.5 °C 19.1 °C 1015.8 hPa Calm   3.2 km/h 81 % 0.0 mm
20:14 26.7 °C 18.0 °C 1013.8 hPa SE 9.3 km/h 9.3 km/h 59 % 0.0 mm
20:19 26.6 °C 17.9 °C 1013.8 hPa East 9.7 km/h 9.7 km/h 59 % 0.0 mm
20:20 22.5 °C 19.1 °C 1015.8 hPa NE 1.6 km/h 3.2 km/h 81 % 0.0 mm
20:24 26.4 °C 17.7 °C 1013.8 hPa SSE 9.3 km/h 9.5 km/h 59 % 0.0 mm
20:29 26.2 °C 17.8 °C 1013.8 hPa ESE 11.1 km/h 11.1 km/h 60 % 0.0 mm
20:30 22.5 °C 19.1 °C 1015.8 hPa NNE 3.2 km/h 4.8 km/h 81 % 0.0 mm
20:34 26.2 °C 18.1 °C 1013.8 hPa ENE 11.1 km/h 11.1 km/h 61 % 0.0 mm
20:39 26.0 °C 18.2 °C 1013.8 hPa ENE 9.3 km/h 9.3 km/h 62 % 0.0 mm
20:40 22.3 °C 18.9 °C 1015.8 hPa NNE 3.2 km/h 4.8 km/h 81 % 0.0 mm
20:44 25.9 °C 18.1 °C 1013.8 hPa ESE 7.4 km/h 7.4 km/h 62 % 0.0 mm
20:49 25.8 °C 18.2 °C 1013.8 hPa ESE 7.4 km/h 7.4 km/h 63 % 0.0 mm
20:50 22.3 °C 18.9 °C 1014.8 hPa NNE 1.6 km/h 4.8 km/h 81 % 0.0 mm
20:54 25.7 °C 18.1 °C 1013.8 hPa ENE 7.6 km/h 7.6 km/h 63 % 0.0 mm
20:58 25.6 °C 18.1 °C 1013.8 hPa ENE 9.5 km/h 9.5 km/h 63 % 0.0 mm
21:00 22.2 °C 18.8 °C 1014.8 hPa NNE 1.6 km/h 3.2 km/h 81 % 0.0 mm
21:03 25.4 °C 18.1 °C 1013.8 hPa ENE 6.1 km/h 6.1 km/h 64 % 0.0 mm
21:08 25.3 °C 18.2 °C 1013.8 hPa ENE 11.1 km/h 11.1 km/h 65 % 0.0 mm
21:10 22.1 °C 18.9 °C 1015.8 hPa NNE 3.2 km/h 3.2 km/h 82 % 0.0 mm
21:13 25.1 °C 18.1 °C 1013.8 hPa East 9.3 km/h 9.3 km/h 65 % 0.0 mm
21:18 25.0 °C 18.2 °C 1013.8 hPa ENE 9.3 km/h 9.3 km/h 66 % 0.0 mm
21:20 22.0 °C 18.8 °C 1015.8 hPa Calm   1.6 km/h 82 % 0.0 mm
21:23 24.9 °C 18.6 °C 1013.8 hPa East 7.4 km/h 7.4 km/h 68 % 0.0 mm
21:28 24.8 °C 18.7 °C 1013.8 hPa ESE 11.1 km/h 11.1 km/h 69 % 0.0 mm
21:30 22.0 °C 18.8 °C 1015.8 hPa Calm   3.2 km/h 82 % 0.0 mm
21:33 24.7 °C 18.8 °C 1013.8 hPa ENE 9.3 km/h 9.3 km/h 70 % 0.0 mm
21:38 24.6 °C 18.8 °C 1013.8 hPa ENE 11.1 km/h 11.1 km/h 70 % 0.0 mm
21:40 21.9 °C 18.9 °C 1015.8 hPa Calm   1.6 km/h 83 % 0.0 mm
21:43 24.5 °C 18.7 °C 1013.8 hPa ESE 5.6 km/h 5.6 km/h 70 % 0.0 mm
21:48 24.4 °C 18.6 °C 1013.8 hPa East 9.7 km/h 9.7 km/h 70 % 0.0 mm
21:50 21.8 °C 18.8 °C 1015.8 hPa NNE 1.6 km/h 1.6 km/h 83 % 0.0 mm
21:53 24.4 °C 18.8 °C 1013.8 hPa ESE 11.1 km/h 11.1 km/h 71 % 0.0 mm
21:58 24.3 °C 18.9 °C 1013.8 hPa ENE 7.4 km/h 7.4 km/h 72 % 0.0 mm
22:00 21.7 °C 18.7 °C 1015.8 hPa Calm     83 % 0.0 mm
22:03 24.2 °C 18.8 °C 1013.8 hPa ESE 7.4 km/h 7.4 km/h 72 % 0.0 mm
22:08 24.2 °C 19.1 °C 1014.8 hPa ENE 7.4 km/h 7.4 km/h 73 % 0.0 mm
22:10 21.6 °C 18.6 °C 1015.8 hPa Calm     83 % 0.0 mm
22:13 24.1 °C 18.9 °C 1014.8 hPa East 9.5 km/h 9.5 km/h 73 % 0.0 mm
22:18 24.0 °C 19.1 °C 1014.8 hPa East 9.3 km/h 9.3 km/h 74 % 0.0 mm
22:20 21.5 °C 18.5 °C 1015.8 hPa Calm     83 % 0.0 mm
22:23 24.0 °C 19.1 °C 1014.8 hPa ESE 11.1 km/h 11.1 km/h 74 % 0.0 mm
22:28 24.0 °C 19.3 °C 1014.8 hPa ESE 9.3 km/h 9.3 km/h 75 % 0.0 mm
22:30 21.4 °C 18.6 °C 1015.8 hPa Calm   1.6 km/h 84 % 0.0 mm
22:33 23.9 °C 19.2 °C 1014.8 hPa NNE 5.6 km/h 5.6 km/h 75 % 0.0 mm
22:38 23.8 °C 19.1 °C 1014.8 hPa East 5.6 km/h 5.6 km/h 75 % 0.0 mm
22:40 21.3 °C 18.5 °C 1015.8 hPa ENE 1.6 km/h 3.2 km/h 84 % 0.0 mm
22:43 23.7 °C 19.0 °C 1014.8 hPa ESE 9.3 km/h 9.3 km/h 75 % 0.0 mm
22:48 23.7 °C 19.0 °C 1014.8 hPa East 7.4 km/h 7.4 km/h 75 % 0.0 mm
22:50 21.2 °C 18.4 °C 1014.8 hPa ENE 1.6 km/h 1.6 km/h 84 % 0.0 mm
22:53 23.6 °C 18.9 °C 1015.8 hPa ENE 9.3 km/h 9.3 km/h 75 % 0.0 mm
22:58 23.6 °C 19.1 °C 1015.8 hPa ENE 7.6 km/h 7.6 km/h 76 % 0.0 mm
23:00 21.2 °C 18.4 °C 1014.8 hPa Calm     84 % 0.0 mm
23:03 23.6 °C 19.1 °C 1015.8 hPa East 9.3 km/h 9.3 km/h 76 % 0.0 mm
23:08 23.5 °C 19.0 °C 1014.8 hPa ENE 3.9 km/h 3.9 km/h 76 % 0.0 mm
23:10 21.1 °C 18.3 °C 1014.8 hPa Calm     84 % 0.0 mm
23:13 23.5 °C 19.0 °C 1014.8 hPa NE 3.9 km/h 4.2 km/h 76 % 0.0 mm
23:18 23.4 °C 18.9 °C 1015.8 hPa NNE 3.7 km/h 3.9 km/h 76 % 0.0 mm
23:20 21.0 °C 18.2 °C 1014.8 hPa ENE 1.6 km/h 3.2 km/h 84 % 0.0 mm
23:23 23.3 °C 18.8 °C 1015.8 hPa ENE 7.4 km/h 7.4 km/h 76 % 0.0 mm
23:28 23.3 °C 18.8 °C 1015.8 hPa NE 5.6 km/h 5.6 km/h 76 % 0.0 mm
23:30 20.9 °C 18.1 °C 1014.8 hPa NE 1.6 km/h 1.6 km/h 84 % 0.0 mm
23:33 23.2 °C 18.7 °C 1015.8 hPa NNE 5.6 km/h 5.6 km/h 76 % 0.0 mm
23:38 23.1 °C 18.8 °C 1015.8 hPa ENE 5.6 km/h 5.6 km/h 77 % 0.0 mm
23:40 20.8 °C 18.0 °C 1015.8 hPa Calm     84 % 0.0 mm
23:43 23.1 °C 18.8 °C 1015.8 hPa ENE 5.6 km/h 5.6 km/h 77 % 0.0 mm
23:48 23.1 °C 18.8 °C 1015.8 hPa NE 5.6 km/h 5.6 km/h 77 % 0.0 mm
23:50 20.6 °C 17.8 °C 1015.8 hPa SE 1.6 km/h 3.2 km/h 84 % 0.0 mm
23:53 23.0 °C 18.7 °C 1015.8 hPa NE 7.4 km/h 7.4 km/h 77 % 0.0 mm
Meteo Sesrovires
Elogis d' Weather Underground - 3.75 mb

Guio original per  Jim McMurry - jmcmurry@mwt.net Adaptat per a la plantilla per  Wim van der Kuil - Leuven-Template.eu

Trobareu la nostra informacio del temps tambe a:

Weather Underground

AWEKAS